Time;durP1;ratioP1;P1;durP2;ratioP2;P2;SDS_P1;SDS_P2;PMS_P1;PMS_P2;Temp;Humidity;BMP_temperature;BMP_pressure;BME280_temperature;BME280_humidity;BME280_pressure;Samples;Min_cycle;Max_cycle;Signal;HPM_P1;HPM_P2
2023/07/28 00:02:45;;;;;;;3.62;1.52;;;16.90;99.90;;;;;;7285906;32;20160;-56
2023/07/28 00:06:47;;;;;;;4.65;1.80;;;16.90;99.90;;;;;;7279849;32;20192;-56
2023/07/28 00:10:49;;;;;;;5.87;1.83;;;16.90;99.90;;;;;;7286143;32;20104;-57
2023/07/28 00:14:50;;;;;;;2.80;1.70;;;16.90;99.90;;;;;;7289421;32;20255;-56
2023/07/28 00:18:52;;;;;;;2.62;1.70;;;16.90;99.90;;;;;;7289255;32;20142;-56
2023/07/28 00:22:54;;;;;;;3.70;1.87;;;16.90;99.90;;;;;;7283302;32;20104;-56
2023/07/28 00:26:56;;;;;;;6.05;2.00;;;16.90;99.90;;;;;;7285920;32;20181;-56
2023/07/28 00:30:57;;;;;;;4.75;2.22;;;17.00;99.90;;;;;;7278307;32;20387;-56
2023/07/28 00:34:59;;;;;;;3.67;2.05;;;17.00;99.90;;;;;;7284842;32;20234;-57
2023/07/28 00:39:01;;;;;;;4.43;2.22;;;17.10;99.90;;;;;;7279369;32;20161;-56
2023/07/28 00:43:02;;;;;;;5.22;2.00;;;16.90;99.90;;;;;;7278938;32;20498;-56
2023/07/28 00:47:04;;;;;;;2.90;2.50;;;16.90;99.90;;;;;;7285017;32;20181;-56
2023/07/28 00:51:07;;;;;;;6.30;2.35;;;16.90;99.90;;;;;;7278886;32;20116;-56
2023/07/28 00:55:09;;;;;;;5.72;2.47;;;17.00;99.90;;;;;;7278533;32;20324;-56
2023/07/28 00:59:11;;;;;;;3.45;2.08;;;16.90;99.90;;;;;;7292280;32;20508;-56
2023/07/28 01:03:15;;;;;;;4.70;2.70;;;17.00;99.90;;;;;;7286212;32;20733;-56
2023/07/28 01:07:56;;;;;;;7.57;2.78;;;17.00;99.90;;;;;;7284112;32;20157;-56
2023/07/28 01:11:58;;;;;;;4.80;2.72;;;16.90;99.90;;;;;;7250620;32;20772;-57
2023/07/28 01:16:00;;;;;;;5.18;2.87;;;17.00;99.90;;;;;;7282524;32;20131;-56
2023/07/28 01:20:03;;;;;;;7.20;3.08;;;17.00;99.90;;;;;;7284674;32;20108;-57
2023/07/28 01:24:29;;;;;;;4.75;2.70;;;16.90;99.90;;;;;;7270843;32;20491;-56
2023/07/28 01:28:34;;;;;;;3.53;3.17;;;16.90;99.90;;;;;;7284850;32;20100;-56
2023/07/28 01:32:36;;;;;;;4.80;2.92;;;17.00;99.90;;;;;;7279693;32;20589;-56
2023/07/28 01:36:37;;;;;;;5.80;3.60;;;17.00;99.90;;;;;;7283391;32;20130;-57
2023/07/28 01:40:39;;;;;;;9.27;5.00;;;16.90;99.90;;;;;;7280813;32;20192;-56
2023/07/28 01:44:41;;;;;;;7.43;6.10;;;17.00;99.90;;;;;;7288273;32;20759;-56
2023/07/28 01:48:43;;;;;;;7.90;7.10;;;17.00;99.90;;;;;;7284449;32;20096;-56
2023/07/28 01:52:44;;;;;;;9.23;6.95;;;17.00;99.90;;;;;;7278293;32;20126;-56
2023/07/28 01:56:46;;;;;;;8.80;7.90;;;16.90;99.90;;;;;;7284849;32;20816;-57
2023/07/28 02:00:48;;;;;;;10.63;7.35;;;17.00;99.90;;;;;;7287743;32;20101;-56
2023/07/28 02:04:49;;;;;;;9.07;8.02;;;17.00;99.90;;;;;;7282487;32;20222;-56
2023/07/28 02:08:51;;;;;;;10.85;8.15;;;17.00;99.90;;;;;;7295388;32;20169;-57
2023/07/28 02:12:53;;;;;;;10.00;7.60;;;17.00;99.90;;;;;;7282750;32;20275;-56
2023/07/28 02:16:54;;;;;;;9.65;8.75;;;17.00;99.90;;;;;;7287391;32;20100;-56
2023/07/28 02:20:56;;;;;;;8.25;7.45;;;17.00;99.90;;;;;;7291259;32;20107;-56
2023/07/28 02:25:01;;;;;;;11.65;7.72;;;17.00;99.90;;;;;;7287923;32;20100;-56
2023/07/28 02:29:03;;;;;;;12.00;8.32;;;17.00;99.90;;;;;;7291693;32;20096;-56
2023/07/28 02:33:05;;;;;;;7.25;6.55;;;17.00;99.90;;;;;;7287643;32;20111;-57
2023/07/28 02:37:07;;;;;;;6.15;5.53;;;17.00;99.90;;;;;;7284762;32;20170;-56
2023/07/28 02:41:08;;;;;;;7.05;4.75;;;17.00;99.90;;;;;;7287877;32;20446;-56
2023/07/28 02:45:10;;;;;;;4.05;3.75;;;17.00;99.90;;;;;;7287759;32;20208;-56
2023/07/28 02:49:12;;;;;;;4.57;3.70;;;17.00;99.90;;;;;;7288059;32;20921;-56
2023/07/28 02:53:14;;;;;;;4.93;3.40;;;17.00;99.90;;;;;;7288719;32;20179;-56
2023/07/28 02:57:16;;;;;;;2.75;2.55;;;17.00;99.90;;;;;;7282551;32;20104;-56
2023/07/28 03:01:17;;;;;;;4.40;3.25;;;17.00;99.90;;;;;;7285835;32;20195;-57
2023/07/28 03:05:19;;;;;;;3.45;3.15;;;17.00;99.90;;;;;;7283060;32;20261;-56
2023/07/28 03:09:21;;;;;;;3.80;3.50;;;17.10;99.90;;;;;;7282044;32;20726;-57
2023/07/28 03:13:23;;;;;;;3.83;3.28;;;17.10;99.90;;;;;;7286155;32;20100;-56
2023/07/28 03:17:24;;;;;;;5.12;4.18;;;17.10;99.90;;;;;;7294128;32;20186;-56
2023/07/28 03:21:29;;;;;;;4.43;4.03;;;17.00;99.90;;;;;;7288173;32;20552;-56
2023/07/28 03:25:31;;;;;;;4.82;4.32;;;17.10;99.90;;;;;;7282342;32;20181;-56
2023/07/28 03:29:33;;;;;;;5.53;4.97;;;17.10;99.90;;;;;;7281141;32;20108;-56
2023/07/28 03:33:34;;;;;;;5.25;4.75;;;17.10;99.90;;;;;;7289008;32;20116;-56
2023/07/28 03:37:36;;;;;;;5.75;4.97;;;17.00;99.90;;;;;;7291904;32;20128;-55
2023/07/28 03:41:38;;;;;;;5.57;5.07;;;17.10;99.90;;;;;;7292813;32;20194;-56
2023/07/28 03:45:39;;;;;;;6.12;4.95;;;17.10;99.90;;;;;;7305736;32;20247;-56
2023/07/28 03:49:41;;;;;;;6.93;5.10;;;17.10;99.90;;;;;;7293282;32;20450;-56
2023/07/28 03:53:43;;;;;;;5.47;4.97;;;17.10;99.90;;;;;;7293441;32;20132;-56
2023/07/28 03:57:44;;;;;;;7.95;5.05;;;17.10;99.90;;;;;;7292885;32;20293;-56
2023/07/28 04:01:47;;;;;;;6.25;5.37;;;17.10;99.90;;;;;;7317854;32;20127;-56
2023/07/28 04:05:49;;;;;;;5.82;5.20;;;17.10;99.90;;;;;;7303654;32;20175;-56
2023/07/28 04:09:51;;;;;;;6.30;5.03;;;17.10;99.90;;;;;;7287233;32;20132;-57
2023/07/28 04:13:53;;;;;;;6.12;4.87;;;17.10;99.90;;;;;;7292556;32;20125;-56
2023/07/28 04:17:54;;;;;;;5.15;4.65;;;17.20;99.90;;;;;;7301410;32;20115;-56
2023/07/28 04:21:57;;;;;;;4.93;4.43;;;17.10;99.90;;;;;;7306187;32;20120;-56
2023/07/28 04:25:58;;;;;;;4.75;3.60;;;17.20;99.90;;;;;;7296752;32;20113;-56
2023/07/28 04:30:00;;;;;;;6.18;3.53;;;17.20;99.90;;;;;;7292403;32;20360;-56
2023/07/28 04:34:03;;;;;;;5.25;3.97;;;17.20;99.90;;;;;;7297031;32;20185;-56
2023/07/28 04:38:05;;;;;;;4.12;3.62;;;17.20;99.90;;;;;;7298393;32;20180;-56
2023/07/28 04:42:06;;;;;;;3.22;2.87;;;17.30;99.90;;;;;;7310569;32;20282;-56
2023/07/28 04:46:08;;;;;;;4.35;2.70;;;17.20;99.90;;;;;;7290980;32;20126;-56
2023/07/28 04:50:10;;;;;;;3.25;2.17;;;17.30;99.90;;;;;;7280836;32;20183;-57
2023/07/28 04:54:12;;;;;;;2.85;2.60;;;17.30;99.90;;;;;;7310241;32;20124;-57
2023/07/28 04:58:13;;;;;;;3.42;2.03;;;17.30;99.90;;;;;;7303710;32;20600;-57
2023/07/28 05:02:15;;;;;;;3.80;2.10;;;17.40;99.90;;;;;;7287017;32;20453;-57
2023/07/28 05:06:17;;;;;;;5.60;2.92;;;17.40;99.90;;;;;;7275680;32;20407;-58
2023/07/28 05:10:19;;;;;;;2.65;1.85;;;17.40;99.90;;;;;;7287497;32;20544;-57
2023/07/28 05:14:21;;;;;;;2.95;2.20;;;17.40;99.90;;;;;;7289113;32;20511;-59
2023/07/28 05:18:23;;;;;;;2.60;2.30;;;17.50;99.90;;;;;;7300008;32;20149;-57
2023/07/28 05:22:24;;;;;;;4.70;2.28;;;17.50;99.90;;;;;;7284864;32;20183;-57
2023/07/28 05:26:26;;;;;;;3.17;2.30;;;17.60;99.90;;;;;;7293445;32;20127;-57
2023/07/28 05:30:28;;;;;;;5.78;2.58;;;17.60;99.90;;;;;;7298781;32;20493;-58
2023/07/28 05:34:32;;;;;;;5.53;2.42;;;17.60;99.90;;;;;;7289094;32;20803;-57
2023/07/28 05:38:34;;;;;;;4.37;2.53;;;17.60;99.90;;;;;;7281887;32;20587;-57
2023/07/28 05:42:36;;;;;;;5.22;2.92;;;17.70;99.90;;;;;;7294614;32;20115;-57
2023/07/28 05:46:38;;;;;;;4.20;3.00;;;17.80;99.90;;;;;;7287078;32;20473;-57
2023/07/28 05:50:39;;;;;;;5.07;3.42;;;17.80;99.90;;;;;;7282866;32;20205;-57
2023/07/28 05:54:41;;;;;;;8.98;3.10;;;17.80;99.90;;;;;;7296170;32;20231;-58
2023/07/28 05:58:43;;;;;;;7.35;3.28;;;17.80;99.90;;;;;;7288833;32;20124;-58
2023/07/28 06:02:44;;;;;;;5.60;2.95;;;17.80;99.90;;;;;;7293167;32;20104;-57
2023/07/28 06:06:47;;;;;;;3.35;2.62;;;17.80;99.90;;;;;;7288924;32;20234;-57
2023/07/28 06:10:48;;;;;;;3.60;2.95;;;17.80;99.90;;;;;;7289270;32;20127;-57
2023/07/28 06:14:50;;;;;;;4.40;2.65;;;17.80;99.90;;;;;;7289611;32;20266;-58
2023/07/28 06:18:52;;;;;;;5.40;2.87;;;17.80;99.90;;;;;;7289314;32;20131;-58
2023/07/28 06:22:54;;;;;;;7.55;3.30;;;17.90;99.90;;;;;;7284975;32;20105;-57
2023/07/28 06:26:55;;;;;;;4.70;3.15;;;17.90;99.90;;;;;;7298299;32;20126;-58
2023/07/28 06:30:58;;;;;;;3.80;2.65;;;17.90;99.90;;;;;;7293329;32;20222;-58
2023/07/28 06:35:00;;;;;;;5.32;2.92;;;17.90;99.90;;;;;;7290711;32;20221;-58
2023/07/28 06:39:02;;;;;;;4.40;3.10;;;17.90;99.90;;;;;;7285241;32;20866;-58
2023/07/28 06:43:03;;;;;;;4.50;3.10;;;17.90;99.90;;;;;;7312668;32;20103;-57
2023/07/28 06:47:05;;;;;;;9.38;2.92;;;17.90;99.90;;;;;;7287455;32;20100;-58
2023/07/28 06:51:07;;;;;;;5.45;3.37;;;17.90;99.90;;;;;;7296631;32;20128;-57
2023/07/28 06:55:09;;;;;;;5.20;3.25;;;17.90;99.90;;;;;;7285301;32;20253;-57
2023/07/28 06:59:11;;;;;;;3.62;2.95;;;17.90;99.90;;;;;;7295958;32;20257;-57
2023/07/28 07:03:20;;;;;;;7.97;3.72;;;17.90;99.90;;;;;;7301713;32;20304;-57
2023/07/28 07:07:22;;;;;;;4.07;3.20;;;17.90;99.90;;;;;;7298528;32;20534;-57
2023/07/28 07:11:23;;;;;;;4.43;2.72;;;17.90;99.90;;;;;;7303817;32;20100;-57
2023/07/28 07:15:25;;;;;;;2.92;2.42;;;18.00;99.90;;;;;;7295593;32;20203;-57
2023/07/28 07:19:30;;;;;;;5.18;2.75;;;18.00;99.90;;;;;;7297011;32;20430;-57
2023/07/28 07:23:32;;;;;;;6.35;3.00;;;18.00;99.90;;;;;;7295237;32;20123;-57
2023/07/28 07:27:33;;;;;;;4.20;2.78;;;18.10;99.90;;;;;;7294644;32;20173;-57
2023/07/28 07:31:35;;;;;;;6.18;3.00;;;18.10;99.90;;;;;;7277127;32;20096;-57
2023/07/28 07:35:38;;;;;;;4.40;3.35;;;18.10;99.90;;;;;;7290547;32;20535;-58
2023/07/28 07:39:41;;;;;;;5.40;3.40;;;18.20;99.90;;;;;;7295155;32;20123;-58
2023/07/28 07:43:43;;;;;;;5.25;3.28;;;18.20;99.90;;;;;;7292615;32;20496;-58
2023/07/28 07:47:44;;;;;;;5.12;3.72;;;18.30;99.90;;;;;;7294192;32;20232;-57
2023/07/28 07:51:46;;;;;;;4.80;3.30;;;18.40;99.90;;;;;;7305136;32;20111;-57
2023/07/28 07:55:49;;;;;;;3.53;2.62;;;18.40;99.90;;;;;;7293537;32;20185;-57
2023/07/28 07:59:51;;;;;;;3.35;3.03;;;18.60;99.90;;;;;;7298326;32;20241;-58
2023/07/28 08:03:52;;;;;;;3.65;2.65;;;18.60;99.90;;;;;;7286278;32;20112;-57
2023/07/28 08:07:54;;;;;;;4.50;2.12;;;18.80;99.90;;;;;;7291916;32;20611;-58
2023/07/28 08:11:56;;;;;;;3.22;1.98;;;18.80;99.90;;;;;;7292936;32;20124;-58
2023/07/28 08:15:58;;;;;;;4.68;1.90;;;18.80;99.90;;;;;;7287456;32;20167;-57
2023/07/28 08:20:00;;;;;;;3.25;2.10;;;18.80;99.90;;;;;;7282018;32;20161;-58
2023/07/28 08:24:03;;;;;;;2.80;2.12;;;18.80;99.90;;;;;;7295517;32;20130;-57
2023/07/28 08:28:05;;;;;;;2.92;2.20;;;18.80;99.90;;;;;;7291301;32;20211;-57
2023/07/28 08:32:07;;;;;;;6.35;2.50;;;18.80;99.90;;;;;;7289327;32;20115;-57
2023/07/28 08:36:09;;;;;;;4.25;2.20;;;18.80;99.90;;;;;;7283440;32;20440;-57
2023/07/28 08:40:12;;;;;;;6.60;2.30;;;18.80;99.90;;;;;;7298808;32;20213;-58
2023/07/28 08:44:13;;;;;;;6.65;3.00;;;18.70;99.90;;;;;;7296615;32;20104;-57
2023/07/28 08:48:15;;;;;;;6.45;2.87;;;18.70;99.90;;;;;;7287841;32;20104;-57
2023/07/28 08:52:17;;;;;;;4.60;3.08;;;18.70;99.90;;;;;;7298065;32;20573;-58
2023/07/28 08:56:21;;;;;;;4.28;2.78;;;18.70;99.90;;;;;;7298906;32;20777;-58
2023/07/28 09:00:24;;;;;;;5.40;3.28;;;18.80;99.90;;;;;;7286555;32;20151;-57
2023/07/28 09:04:26;;;;;;;3.78;3.00;;;18.80;99.90;;;;;;7287500;32;20104;-57
2023/07/28 09:08:30;;;;;;;5.68;3.22;;;18.80;99.90;;;;;;7283524;32;20174;-57
2023/07/28 09:12:33;;;;;;;4.28;3.30;;;18.80;99.90;;;;;;7284139;32;20259;-57
2023/07/28 09:16:36;;;;;;;6.05;3.10;;;18.80;99.90;;;;;;7271792;32;20099;-57
2023/07/28 09:20:41;;;;;;;5.37;3.65;;;18.80;99.90;;;;;;7289235;32;20104;-58
2023/07/28 09:24:42;;;;;;;4.75;3.72;;;19.00;99.90;;;;;;7294665;32;20130;-58
2023/07/28 09:28:44;;;;;;;4.10;3.28;;;19.10;99.90;;;;;;7285241;32;20131;-58
2023/07/28 09:32:48;;;;;;;5.87;3.45;;;19.30;99.90;;;;;;7284045;32;20183;-58
2023/07/28 09:36:50;;;;;;;7.05;2.83;;;19.30;99.90;;;;;;7295625;32;20095;-57
2023/07/28 09:40:55;;;;;;;6.37;3.45;;;19.40;99.90;;;;;;7292251;32;20123;-58
2023/07/28 09:44:57;;;;;;;5.15;2.87;;;19.50;99.90;;;;;;7285137;32;20165;-57
2023/07/28 09:49:03;;;;;;;5.50;3.22;;;19.60;99.90;;;;;;7291705;32;20105;-58
2023/07/28 09:53:09;;;;;;;4.53;2.72;;;19.70;99.90;;;;;;7281269;32;20147;-57
2023/07/28 09:57:19;;;;;;;3.78;2.72;;;19.80;99.90;;;;;;7294495;32;20198;-57
2023/07/28 10:01:24;;;;;;;3.58;2.08;;;19.90;99.90;;;;;;7278158;32;20184;-58
2023/07/28 10:05:27;;;;;;;2.10;1.90;;;19.90;99.90;;;;;;7296245;32;20130;-57
2023/07/28 10:09:31;;;;;;;3.20;1.73;;;19.90;99.90;;;;;;7292366;32;20128;-57
2023/07/28 10:13:43;;;;;;;1.80;1.70;;;20.00;99.90;;;;;;7292592;32;20107;-57
2023/07/28 10:17:49;;;;;;;2.45;1.77;;;20.30;99.90;;;;;;7290404;32;20101;-58
2023/07/28 10:22:02;;;;;;;4.20;1.73;;;20.60;99.90;;;;;;7297823;32;21037;-57
2023/07/28 10:26:07;;;;;;;2.37;1.52;;;21.00;99.90;;;;;;7299239;32;20483;-58
2023/07/28 10:30:12;;;;;;;1.90;1.40;;;21.10;99.90;;;;;;7278894;32;20099;-58
2023/07/28 10:34:16;;;;;;;2.62;1.52;;;21.00;99.90;;;;;;7283833;32;20105;-58
2023/07/28 10:38:38;;;;;;;2.62;1.40;;;20.90;99.90;;;;;;7294196;32;20176;-58
2023/07/28 10:42:40;;;;;;;2.95;1.45;;;21.10;99.90;;;;;;7302179;32;20124;-58
2023/07/28 10:46:43;;;;;;;1.67;1.58;;;21.30;99.90;;;;;;7295632;32;20282;-58
2023/07/28 10:50:45;;;;;;;1.87;1.20;;;21.40;99.90;;;;;;7289952;32;20527;-57
2023/07/28 10:54:46;;;;;;;2.55;1.48;;;21.60;99.90;;;;;;7281611;32;20231;-57
2023/07/28 10:58:57;;;;;;;2.47;1.00;;;21.80;99.90;;;;;;7303436;32;20197;-58
2023/07/28 11:02:59;;;;;;;4.43;1.20;;;21.80;99.90;;;;;;7277701;32;20526;-58
2023/07/28 11:07:01;;;;;;;6.28;1.30;;;21.60;99.90;;;;;;7292241;32;20673;-57
2023/07/28 11:11:05;;;;;;;1.33;1.12;;;21.40;99.90;;;;;;7294986;32;20100;-58
2023/07/28 11:15:12;;;;;;;2.87;1.20;;;21.20;99.90;;;;;;7297225;32;20308;-57
2023/07/28 11:19:14;;;;;;;0.80;0.80;;;21.10;99.90;;;;;;7301927;32;20434;-58
2023/07/28 11:23:17;;;;;;;3.12;1.20;;;21.20;99.90;;;;;;7282559;32;20158;-57
2023/07/28 11:27:19;;;;;;;2.12;0.80;;;21.40;99.90;;;;;;7273341;32;20100;-57
2023/07/28 11:31:25;;;;;;;1.17;0.88;;;21.60;99.90;;;;;;7297223;32;20199;-57
2023/07/28 11:35:27;;;;;;;2.60;1.00;;;21.70;99.90;;;;;;7266462;32;20282;-57
2023/07/28 11:39:31;;;;;;;3.05;1.23;;;21.70;99.90;;;;;;7287331;32;20153;-58
2023/07/28 11:43:33;;;;;;;2.35;1.00;;;21.60;99.90;;;;;;7292655;32;20126;-57
2023/07/28 11:47:35;;;;;;;1.27;0.90;;;21.60;99.90;;;;;;7283354;32;20127;-57
2023/07/28 11:51:43;;;;;;;1.05;0.95;;;21.60;99.90;;;;;;7296547;32;20205;-57
2023/07/28 11:55:46;;;;;;;1.95;0.75;;;21.60;99.90;;;;;;7278774;32;20206;-58
2023/07/28 11:59:48;;;;;;;2.62;0.65;;;21.50;99.90;;;;;;7281853;32;24055;-57
2023/07/28 12:03:49;;;;;;;3.00;0.70;;;21.40;99.90;;;;;;7281934;32;20096;-58
2023/07/28 12:07:51;;;;;;;1.35;0.70;;;21.30;99.90;;;;;;7285322;32;20162;-58
2023/07/28 12:11:53;;;;;;;2.25;0.70;;;21.60;99.90;;;;;;7280425;32;20105;-58
2023/07/28 12:15:59;;;;;;;0.75;0.60;;;22.00;99.90;;;;;;7288824;32;20101;-58
2023/07/28 12:20:14;;;;;;;1.35;0.90;;;22.30;99.90;;;;;;7279643;32;20112;-57
2023/07/28 12:24:17;;;;;;;3.37;0.90;;;22.80;99.90;;;;;;7293761;32;20122;-57
2023/07/28 12:28:19;;;;;;;1.08;0.55;;;23.10;99.90;;;;;;7291166;32;20218;-58
2023/07/28 12:32:21;;;;;;;0.70;0.50;;;23.30;99.90;;;;;;7287536;32;20319;-58
2023/07/28 12:36:36;;;;;;;4.32;0.70;;;23.10;99.90;;;;;;7282126;32;20132;-57
2023/07/28 12:40:41;;;;;;;1.25;0.60;;;22.90;99.90;;;;;;7282969;32;20107;-58
2023/07/28 12:44:45;;;;;;;0.62;0.50;;;22.80;99.90;;;;;;7285979;32;20108;-58
2023/07/28 12:48:50;;;;;;;0.82;0.50;;;22.50;99.90;;;;;;7281686;32;20247;-58
2023/07/28 12:52:52;;;;;;;1.02;0.60;;;22.60;99.90;;;;;;7279121;32;20210;-58
2023/07/28 12:56:56;;;;;;;2.35;0.70;;;22.60;99.90;;;;;;7286368;32;20154;-57
2023/07/28 13:01:03;;;;;;;1.58;0.77;;;22.70;99.90;;;;;;7287587;32;20105;-57
2023/07/28 13:05:05;;;;;;;0.88;0.43;;;22.90;99.90;;;;;;7278517;32;20265;-57
2023/07/28 13:09:10;;;;;;;1.37;0.70;;;22.90;99.90;;;;;;7280704;32;20551;-57
2023/07/28 13:13:15;;;;;;;2.83;0.60;;;22.70;99.90;;;;;;7288626;32;20123;-57
2023/07/28 13:17:17;;;;;;;0.68;0.40;;;22.40;99.90;;;;;;7289864;32;20096;-58
2023/07/28 13:21:18;;;;;;;0.85;0.50;;;22.20;99.90;;;;;;7279904;32;20113;-57
2023/07/28 13:25:20;;;;;;;1.27;0.45;;;22.00;99.90;;;;;;7281292;32;20231;-57
2023/07/28 13:29:22;;;;;;;1.17;0.50;;;21.90;99.90;;;;;;7289921;32;20187;-57
2023/07/28 13:33:24;;;;;;;1.77;0.57;;;21.90;99.90;;;;;;7285766;32;20100;-57
2023/07/28 13:37:25;;;;;;;1.08;0.70;;;22.00;99.90;;;;;;7281572;32;20100;-57
2023/07/28 13:41:27;;;;;;;1.37;1.08;;;22.20;99.90;;;;;;7282577;32;20199;-57
2023/07/28 13:45:29;;;;;;;0.85;0.60;;;22.10;99.90;;;;;;7283173;32;20127;-58
2023/07/28 13:49:35;;;;;;;1.60;0.62;;;21.90;99.90;;;;;;7286740;32;20129;-58
2023/07/28 13:53:52;;;;;;;1.08;0.60;;;21.80;99.90;;;;;;7294468;32;20222;-58
2023/07/28 13:57:57;;;;;;;0.75;0.40;;;21.80;99.90;;;;;;7285997;32;20100;-57
2023/07/28 14:01:59;;;;;;;1.95;0.50;;;22.00;99.90;;;;;;7289782;32;20432;-58
2023/07/28 14:06:00;;;;;;;0.77;0.40;;;22.20;99.90;;;;;;7283838;32;20644;-58
2023/07/28 14:10:03;;;;;;;0.62;0.30;;;22.40;99.90;;;;;;7285951;32;20100;-57
2023/07/28 14:14:08;;;;;;;2.10;0.50;;;22.40;99.90;;;;;;7291469;32;20569;-57
2023/07/28 14:18:10;;;;;;;0.30;0.30;;;22.30;99.90;;;;;;7283236;32;20149;-57
2023/07/28 14:22:12;;;;;;;0.82;0.50;;;22.30;99.90;;;;;;7290641;32;20203;-58
2023/07/28 14:26:14;;;;;;;0.70;0.50;;;22.30;99.90;;;;;;7284734;32;20114;-57
2023/07/28 14:30:16;;;;;;;1.42;0.43;;;22.20;99.90;;;;;;7288154;32;20577;-57
2023/07/28 14:34:18;;;;;;;1.87;0.77;;;22.20;99.90;;;;;;7281854;32;20187;-57
2023/07/28 14:38:19;;;;;;;1.77;0.70;;;22.00;99.90;;;;;;7281636;32;20513;-57
2023/07/28 14:42:21;;;;;;;0.70;0.60;;;21.90;99.90;;;;;;7283731;32;20377;-58
2023/07/28 14:46:24;;;;;;;3.40;0.68;;;21.90;99.90;;;;;;7284161;32;20467;-58
2023/07/28 14:50:27;;;;;;;1.15;0.75;;;21.80;99.90;;;;;;7282399;32;20139;-57
2023/07/28 14:54:29;;;;;;;0.68;0.60;;;22.00;99.90;;;;;;7286399;32;20165;-58
2023/07/28 14:58:31;;;;;;;1.15;0.80;;;22.10;99.90;;;;;;7280752;32;20173;-57
2023/07/28 15:02:33;;;;;;;1.23;0.60;;;22.20;99.90;;;;;;7290316;32;20821;-56
2023/07/28 15:06:35;;;;;;;1.73;0.80;;;22.30;99.90;;;;;;7281107;32;20118;-57
2023/07/28 15:10:37;;;;;;;0.90;0.70;;;22.40;99.90;;;;;;7283151;32;20131;-57
2023/07/28 15:14:39;;;;;;;1.45;0.80;;;22.30;99.90;;;;;;7286631;32;20207;-58
2023/07/28 15:18:40;;;;;;;1.55;0.85;;;22.10;99.90;;;;;;7289956;32;20157;-57
2023/07/28 15:22:49;;;;;;;3.08;1.25;;;21.80;99.90;;;;;;7289458;32;20146;-58
2023/07/28 15:26:51;;;;;;;1.75;1.00;;;21.50;99.90;;;;;;7284074;32;20124;-57
2023/07/28 15:30:55;;;;;;;2.70;1.10;;;21.30;99.90;;;;;;7280004;32;20900;-57
2023/07/28 15:34:57;;;;;;;1.92;1.02;;;21.30;99.90;;;;;;7285933;32;20182;-57
2023/07/28 15:38:58;;;;;;;1.30;1.10;;;21.30;99.90;;;;;;7280039;32;20112;-57
2023/07/28 15:43:01;;;;;;;2.12;1.33;;;21.30;99.90;;;;;;7280918;32;20124;-57
2023/07/28 15:47:02;;;;;;;1.33;1.10;;;21.30;99.90;;;;;;7276025;32;20199;-57
2023/07/28 15:51:04;;;;;;;1.58;1.40;;;21.40;99.90;;;;;;7280942;32;20502;-57
2023/07/28 15:55:06;;;;;;;1.27;0.70;;;21.50;99.90;;;;;;7279819;32;20179;-57
2023/07/28 15:59:08;;;;;;;2.50;0.90;;;21.30;99.90;;;;;;7286087;32;20104;-57
2023/07/28 16:03:10;;;;;;;1.40;0.90;;;21.20;99.90;;;;;;7280037;32;20453;-57
2023/07/28 16:07:12;;;;;;;1.90;1.20;;;21.10;99.90;;;;;;7279982;32;20732;-57
2023/07/28 16:11:14;;;;;;;1.20;1.00;;;21.00;99.90;;;;;;7282625;32;20119;-56
2023/07/28 16:15:15;;;;;;;1.27;0.98;;;21.00;99.90;;;;;;7292496;32;20100;-57
2023/07/28 16:19:18;;;;;;;1.70;1.02;;;21.00;99.90;;;;;;7283297;32;20123;-56
2023/07/28 16:23:19;;;;;;;0.95;0.88;;;21.00;99.90;;;;;;7281356;32;20173;-57
2023/07/28 16:27:21;;;;;;;20.08;17.02;;;21.10;99.90;;;;;;7279194;32;20131;-57
2023/07/28 16:31:23;;;;;;;11.30;8.27;;;21.10;99.90;;;;;;7280699;32;20180;-57
2023/07/28 16:35:25;;;;;;;2.60;1.80;;;21.20;99.90;;;;;;7277734;32;20439;-57
2023/07/28 16:39:26;;;;;;;1.75;1.52;;;21.30;99.90;;;;;;7280337;32;20247;-56
2023/07/28 16:43:28;;;;;;;3.53;1.02;;;21.40;99.90;;;;;;7280118;32;20096;-58
2023/07/28 16:47:34;;;;;;;1.12;0.90;;;21.60;99.90;;;;;;7287636;32;20104;-57
2023/07/28 16:51:36;;;;;;;1.80;1.00;;;21.60;99.90;;;;;;7278905;32;20446;-57
2023/07/28 16:55:38;;;;;;;2.72;0.90;;;21.60;99.90;;;;;;7283234;32;20463;-57
2023/07/28 16:59:40;;;;;;;1.23;1.10;;;21.40;99.90;;;;;;7283313;32;20222;-58
2023/07/28 17:03:42;;;;;;;1.30;1.00;;;21.30;99.90;;;;;;7281245;32;20198;-57
2023/07/28 17:07:44;;;;;;;3.08;0.90;;;21.40;99.90;;;;;;7269624;32;20127;-57
2023/07/28 17:11:46;;;;;;;1.52;1.35;;;21.30;99.90;;;;;;7286207;32;20522;-57
2023/07/28 17:15:48;;;;;;;1.98;1.48;;;21.30;99.90;;;;;;7283460;32;20464;-56
2023/07/28 17:19:50;;;;;;;2.95;1.95;;;21.40;99.90;;;;;;7281984;32;20123;-57
2023/07/28 17:23:52;;;;;;;5.60;4.57;;;21.40;99.90;;;;;;7283911;32;20100;-57
2023/07/28 17:27:53;;;;;;;2.87;2.62;;;21.40;99.90;;;;;;7285962;32;20108;-57
2023/07/28 17:31:55;;;;;;;1.35;1.25;;;21.40;99.90;;;;;;7294829;32;20528;-57
2023/07/28 17:35:59;;;;;;;1.40;1.17;;;21.50;99.90;;;;;;7290539;32;20163;-58
2023/07/28 17:40:00;;;;;;;1.85;1.00;;;21.60;99.90;;;;;;7285529;32;20600;-58
2023/07/28 17:44:02;;;;;;;1.73;1.00;;;21.60;99.90;;;;;;7294130;32;20097;-57
2023/07/28 17:48:04;;;;;;;1.62;0.90;;;21.40;99.90;;;;;;7295909;32;20213;-57
2023/07/28 17:52:09;;;;;;;1.80;1.08;;;21.40;99.90;;;;;;7288938;32;20111;-58
2023/07/28 17:56:11;;;;;;;1.62;1.23;;;21.20;99.90;;;;;;7301011;32;20520;-58
2023/07/28 18:00:13;;;;;;;1.42;1.00;;;20.90;99.90;;;;;;7295196;32;20175;-57
2023/07/28 18:04:19;;;;;;;1.60;1.30;;;20.90;99.90;;;;;;7291521;32;20140;-57
2023/07/28 18:08:21;;;;;;;3.33;1.33;;;20.80;99.90;;;;;;7285499;32;20154;-58
2023/07/28 18:12:23;;;;;;;3.37;1.52;;;20.60;99.90;;;;;;7286018;32;20195;-58
2023/07/28 18:16:25;;;;;;;3.75;1.37;;;20.50;99.90;;;;;;7290610;32;20179;-57
2023/07/28 18:20:28;;;;;;;3.22;1.52;;;20.50;99.90;;;;;;7292585;32;20168;-57
2023/07/28 18:24:29;;;;;;;3.50;1.40;;;20.40;99.90;;;;;;7287592;32;20610;-58
2023/07/28 18:28:31;;;;;;;2.70;1.33;;;20.30;99.90;;;;;;7288201;32;20232;-57
2023/07/28 18:32:34;;;;;;;2.70;1.58;;;20.20;99.90;;;;;;7286922;32;20113;-57
2023/07/28 18:36:36;;;;;;;2.78;1.30;;;20.00;99.90;;;;;;7290226;32;20586;-57
2023/07/28 18:40:38;;;;;;;2.25;1.40;;;20.00;99.90;;;;;;7290915;32;20095;-58
2023/07/28 18:44:40;;;;;;;2.62;1.30;;;20.00;99.90;;;;;;7290579;32;20122;-58
2023/07/28 18:48:41;;;;;;;2.50;1.55;;;19.90;99.90;;;;;;7288086;32;20253;-58
2023/07/28 18:52:43;;;;;;;2.17;1.48;;;19.90;99.90;;;;;;7290533;32;20175;-58
2023/07/28 18:56:45;;;;;;;3.12;1.35;;;19.80;99.90;;;;;;7283262;32;20103;-58
2023/07/28 19:00:48;;;;;;;2.67;1.60;;;19.70;99.90;;;;;;7289323;32;20097;-57
2023/07/28 19:04:49;;;;;;;2.78;1.40;;;19.60;99.90;;;;;;7281042;32;20124;-58
2023/07/28 19:08:52;;;;;;;2.70;1.67;;;19.50;99.90;;;;;;7280410;32;20271;-57
2023/07/28 19:12:54;;;;;;;1.62;1.27;;;19.40;99.90;;;;;;7285936;32;20187;-57
2023/07/28 19:16:56;;;;;;;4.43;1.67;;;19.40;99.90;;;;;;7294397;32;20208;-57
2023/07/28 19:20:58;;;;;;;3.92;1.67;;;19.30;99.90;;;;;;7281418;32;20104;-57
2023/07/28 19:24:59;;;;;;;3.05;1.55;;;19.20;99.90;;;;;;7288514;32;20147;-57
2023/07/28 19:29:03;;;;;;;2.10;1.42;;;19.10;99.90;;;;;;7285026;32;20633;-58
2023/07/28 19:33:06;;;;;;;2.12;1.62;;;19.00;99.90;;;;;;7286852;32;20574;-57
2023/07/28 19:37:07;;;;;;;3.53;1.60;;;19.00;99.90;;;;;;7290736;32;20510;-57
2023/07/28 19:41:10;;;;;;;1.83;1.62;;;18.90;99.90;;;;;;7292544;32;20272;-57
2023/07/28 19:45:13;;;;;;;2.87;2.05;;;18.80;99.90;;;;;;7293659;32;20118;-56
2023/07/28 19:49:16;;;;;;;2.95;1.50;;;18.80;99.90;;;;;;7280627;32;20159;-56
2023/07/28 19:53:18;;;;;;;5.37;1.98;;;18.70;99.90;;;;;;7285374;32;20104;-57
2023/07/28 19:57:20;;;;;;;1.92;1.73;;;18.60;99.90;;;;;;7285181;32;20181;-57
2023/07/28 20:01:29;;;;;;;4.32;1.77;;;18.60;99.90;;;;;;7278925;32;20473;-57
2023/07/28 20:05:32;;;;;;;2.75;2.00;;;18.50;99.90;;;;;;7287015;32;20097;-57
2023/07/28 20:09:34;;;;;;;2.55;1.95;;;18.50;99.90;;;;;;7285532;32;20109;-56
2023/07/28 20:13:35;;;;;;;2.70;2.00;;;18.50;99.90;;;;;;7287202;32;20101;-56
2023/07/28 20:17:37;;;;;;;5.72;2.42;;;18.50;99.90;;;;;;7280635;32;20502;-56
2023/07/28 20:21:39;;;;;;;8.65;4.68;;;18.50;99.90;;;;;;7284406;32;20494;-56
2023/07/28 20:25:41;;;;;;;3.95;3.10;;;18.60;99.90;;;;;;7287161;32;20577;-57
2023/07/28 20:29:43;;;;;;;4.45;2.60;;;18.60;99.90;;;;;;7279039;32;20156;-56
2023/07/28 20:33:44;;;;;;;6.57;2.12;;;18.70;99.90;;;;;;7282087;32;20540;-56
2023/07/28 20:37:46;;;;;;;4.03;2.15;;;18.70;99.90;;;;;;7281354;32;20123;-56
2023/07/28 20:41:48;;;;;;;2.35;1.75;;;18.70;99.90;;;;;;7290475;32;20763;-56
2023/07/28 20:45:50;;;;;;;2.03;1.73;;;18.70;99.90;;;;;;7290391;32;20635;-56
2023/07/28 20:49:53;;;;;;;3.60;2.10;;;18.70;99.90;;;;;;7280775;32;20498;-56
2023/07/28 20:53:55;;;;;;;7.65;2.70;;;18.70;99.90;;;;;;7282822;32;20187;-56
2023/07/28 20:58:01;;;;;;;5.45;2.30;;;18.80;99.90;;;;;;7282400;32;20143;-56
2023/07/28 21:02:03;;;;;;;4.03;2.43;;;18.80;99.90;;;;;;7283605;32;20104;-56